createdAt,value
2023-02-21T00:02:15.471Z,9.10
2023-02-21T00:05:00.835Z,9.10
2023-02-21T00:07:47.220Z,9.20
2023-02-21T00:10:35.163Z,9.10
2023-02-21T00:13:20.562Z,9.20
2023-02-21T00:16:06.041Z,9.10
2023-02-21T00:18:53.244Z,9.10
2023-02-21T00:21:38.600Z,9.10
2023-02-21T00:24:24.842Z,9.10
2023-02-21T00:27:10.132Z,9.10
2023-02-21T00:29:55.880Z,9.10
2023-02-21T00:32:41.284Z,9.10
2023-02-21T00:35:26.600Z,9.10
2023-02-21T00:38:12.468Z,9.10
2023-02-21T00:40:57.940Z,9.10
2023-02-21T00:43:53.913Z,9.10
2023-02-21T00:46:41.382Z,9.10
2023-02-21T00:49:27.120Z,9.00
2023-02-21T00:52:12.858Z,9.10
2023-02-21T00:54:58.205Z,9.10
2023-02-21T00:57:43.409Z,9.10
2023-02-21T01:00:37.590Z,9.10
2023-02-21T01:03:23.410Z,9.10
2023-02-21T01:06:09.634Z,9.10
2023-02-21T01:08:54.888Z,9.10
2023-02-21T01:11:41.680Z,9.10
2023-02-21T01:14:28.488Z,9.20
2023-02-21T01:17:14.153Z,9.10
2023-02-21T01:20:00.976Z,9.10
2023-02-21T01:22:47.449Z,9.10
2023-02-21T01:25:33.734Z,9.10
2023-02-21T01:28:19.213Z,9.20
2023-02-21T01:31:04.607Z,9.10
2023-02-21T01:33:55.428Z,9.10
2023-02-21T01:36:40.770Z,9.10
2023-02-21T01:39:26.811Z,9.10
2023-02-21T01:42:12.330Z,9.10
2023-02-21T01:45:01.331Z,9.10
2023-02-21T01:47:47.221Z,9.20
2023-02-21T01:50:46.459Z,9.20
2023-02-21T01:53:45.945Z,9.20
2023-02-21T01:56:32.456Z,9.20
2023-02-21T01:59:20.323Z,9.20
2023-02-21T02:02:20.825Z,9.20
2023-02-21T02:05:08.121Z,9.20
2023-02-21T02:07:54.124Z,9.20
2023-02-21T02:10:39.468Z,9.20
2023-02-21T02:13:53.781Z,9.30
2023-02-21T02:16:41.555Z,9.20
2023-02-21T02:19:27.889Z,9.30
2023-02-21T02:22:18.842Z,9.30
2023-02-21T02:24:54.817Z,9.20
2023-02-21T02:27:45.881Z,9.20
2023-02-21T02:30:15.655Z,9.20
2023-02-21T02:33:17.474Z,9.20
2023-02-21T02:35:50.477Z,9.30
2023-02-21T02:38:57.670Z,9.30
2023-02-21T02:41:39.881Z,9.30
2023-02-21T02:44:20.845Z,9.30
2023-02-21T02:46:50.048Z,9.30
2023-02-21T02:49:21.584Z,9.30
2023-02-21T02:51:49.132Z,9.30
2023-02-21T02:54:15.977Z,9.30
2023-02-21T02:56:43.029Z,9.30
2023-02-21T02:59:23.191Z,9.40
2023-02-21T03:01:50.270Z,9.40
2023-02-21T03:04:41.471Z,9.30
2023-02-21T03:07:50.425Z,9.40
2023-02-21T03:10:54.842Z,9.40
2023-02-21T03:13:24.240Z,9.40
2023-02-21T03:16:04.248Z,9.40
2023-02-21T03:18:41.923Z,9.40
2023-02-21T03:21:21.981Z,9.40
2023-02-21T03:23:51.661Z,9.40
2023-02-21T03:26:19.323Z,9.40
2023-02-21T03:28:48.037Z,9.40
2023-02-21T03:31:20.291Z,9.40
2023-02-21T03:33:47.128Z,9.30
2023-02-21T03:36:15.368Z,9.40
2023-02-21T03:38:42.220Z,9.30
2023-02-21T03:41:12.051Z,9.40
2023-02-21T03:43:39.074Z,9.40
2023-02-21T03:46:05.918Z,9.40
2023-02-21T03:48:33.036Z,9.40
2023-02-21T03:51:00.329Z,9.40
2023-02-21T03:53:27.153Z,9.40
2023-02-21T03:55:54.034Z,9.30
2023-02-21T03:58:20.857Z,9.30
2023-02-21T04:00:48.020Z,9.30
2023-02-21T04:03:14.820Z,9.30
2023-02-21T04:05:41.779Z,9.30
2023-02-21T04:08:08.662Z,9.30
2023-02-21T04:10:38.217Z,9.30
2023-02-21T04:13:14.016Z,9.40
2023-02-21T04:15:40.895Z,9.30
2023-02-21T04:18:07.689Z,9.30
2023-02-21T04:20:34.575Z,9.40
2023-02-21T04:23:03.619Z,9.30
2023-02-21T04:25:31.079Z,9.40
2023-02-21T04:27:57.978Z,9.30
2023-02-21T04:30:24.899Z,9.30
2023-02-21T04:32:51.749Z,9.30
2023-02-21T04:35:18.578Z,9.30
2023-02-21T04:37:45.799Z,9.20
2023-02-21T04:40:12.854Z,9.40
2023-02-21T04:42:39.894Z,9.30
2023-02-21T04:45:07.263Z,9.30
2023-02-21T04:47:34.058Z,9.30
2023-02-21T04:50:00.953Z,9.30
2023-02-21T04:52:27.831Z,9.30
2023-02-21T04:54:54.700Z,9.30
2023-02-21T04:57:21.893Z,9.30
2023-02-21T04:59:48.724Z,9.30
2023-02-21T05:02:18.212Z,9.30
2023-02-21T05:04:45.069Z,9.30
2023-02-21T05:07:11.908Z,9.40
2023-02-21T05:09:38.695Z,9.30
2023-02-21T05:12:11.317Z,9.30
2023-02-21T05:14:41.986Z,9.30
2023-02-21T05:17:09.753Z,9.30
2023-02-21T05:19:36.777Z,9.30
2023-02-21T05:22:06.621Z,9.30
2023-02-21T05:24:34.454Z,9.30
2023-02-21T05:27:01.398Z,9.30
2023-02-21T05:29:28.339Z,9.30
2023-02-21T05:31:55.325Z,9.30
2023-02-21T05:34:22.157Z,9.20
2023-02-21T05:36:49.038Z,9.20
2023-02-21T05:39:16.085Z,9.30
2023-02-21T05:41:50.344Z,9.30
2023-02-21T05:44:18.191Z,9.20
2023-02-21T05:46:46.132Z,9.20
2023-02-21T05:49:13.390Z,9.20
2023-02-21T05:51:43.145Z,9.20
2023-02-21T05:54:17.440Z,9.20
2023-02-21T05:56:45.990Z,9.20
2023-02-21T05:59:14.157Z,9.20
2023-02-21T06:01:41.208Z,9.30
2023-02-21T06:04:08.331Z,9.30
2023-02-21T06:06:35.524Z,9.30
2023-02-21T06:09:03.138Z,9.30
2023-02-21T06:11:37.059Z,9.20
2023-02-21T06:14:06.330Z,9.20
2023-02-21T06:16:37.897Z,9.20
2023-02-21T06:19:06.936Z,9.20
2023-02-21T06:21:35.717Z,9.30
2023-02-21T06:24:03.423Z,9.30
2023-02-21T06:26:30.252Z,9.30
2023-02-21T06:28:57.070Z,9.20
2023-02-21T06:31:24.315Z,9.20
2023-02-21T06:33:52.142Z,9.20
2023-02-21T06:36:22.051Z,9.20
2023-02-21T06:38:53.466Z,9.30
2023-02-21T06:41:25.818Z,9.20
2023-02-21T06:43:54.213Z,9.20
2023-02-21T06:46:23.215Z,9.20
2023-02-21T06:48:50.492Z,9.20
2023-02-21T06:51:18.536Z,9.30
2023-02-21T06:53:49.105Z,9.20
2023-02-21T06:56:16.263Z,9.20
2023-02-21T06:58:43.228Z,9.20
2023-02-21T07:01:10.228Z,9.20
2023-02-21T07:03:40.813Z,9.20
2023-02-21T07:06:07.684Z,9.20
2023-02-21T07:08:34.592Z,9.20
2023-02-21T07:11:01.548Z,9.20
2023-02-21T07:13:28.513Z,9.20
2023-02-21T07:15:55.464Z,9.20
2023-02-21T07:18:22.442Z,9.20
2023-02-21T07:20:49.690Z,9.20
2023-02-21T07:23:16.594Z,9.20
2023-02-21T07:25:43.470Z,9.20
2023-02-21T07:28:11.727Z,9.20
2023-02-21T07:30:38.798Z,9.20
2023-02-21T07:33:05.641Z,9.20
2023-02-21T07:35:32.725Z,9.20
2023-02-21T07:37:59.542Z,9.20
2023-02-21T07:40:26.525Z,9.30
2023-02-21T07:42:53.508Z,9.20
2023-02-21T07:45:20.299Z,9.30
2023-02-21T07:47:48.233Z,9.30
2023-02-21T07:50:16.284Z,9.30
2023-02-21T07:52:43.129Z,9.30
2023-02-21T07:55:12.177Z,9.20
2023-02-21T07:57:39.263Z,9.30
2023-02-21T08:00:06.933Z,9.30
2023-02-21T08:02:33.798Z,9.30
2023-02-21T08:05:00.652Z,9.30
2023-02-21T08:07:27.669Z,9.30
2023-02-21T08:09:54.785Z,9.40
2023-02-21T08:12:21.570Z,9.30
2023-02-21T08:14:48.451Z,9.30
2023-02-21T08:17:15.401Z,9.40
2023-02-21T08:19:42.472Z,9.30
2023-02-21T08:22:09.316Z,9.30
2023-02-21T08:24:36.355Z,9.30
2023-02-21T08:27:03.270Z,9.30
2023-02-21T08:29:30.104Z,9.30
2023-02-21T08:31:58.354Z,9.20
2023-02-21T08:34:25.264Z,9.30
2023-02-21T08:36:52.049Z,9.30
2023-02-21T08:39:18.889Z,9.30
2023-02-21T08:41:48.463Z,9.40
2023-02-21T08:44:17.223Z,9.40
2023-02-21T08:46:44.475Z,9.40
2023-02-21T08:49:11.471Z,9.40
2023-02-21T08:51:38.516Z,9.40
2023-02-21T08:54:06.102Z,9.40
2023-02-21T08:56:33.382Z,9.40
2023-02-21T08:59:00.705Z,9.50
2023-02-21T09:01:33.789Z,9.50
2023-02-21T09:04:01.341Z,9.50
2023-02-21T09:06:28.626Z,9.50
2023-02-21T09:08:55.736Z,9.50
2023-02-21T09:11:22.754Z,9.40
2023-02-21T09:13:49.688Z,9.40
2023-02-21T09:16:16.548Z,9.50
2023-02-21T09:18:43.410Z,9.40
2023-02-21T09:21:10.205Z,9.50
2023-02-21T09:23:37.055Z,9.50
2023-02-21T09:26:03.968Z,9.50
2023-02-21T09:28:31.634Z,9.60
2023-02-21T09:30:58.579Z,9.50
2023-02-21T09:33:25.733Z,9.50
2023-02-21T09:35:54.035Z,9.60
2023-02-21T09:38:21.167Z,9.50
2023-02-21T09:41:00.629Z,9.60
2023-02-21T09:43:36.606Z,9.50
2023-02-21T09:46:14.029Z,9.60
2023-02-21T09:48:43.778Z,9.60
2023-02-21T09:51:14.438Z,9.60
2023-02-21T09:53:46.300Z,9.60
2023-02-21T09:56:35.443Z,9.60
2023-02-21T09:59:02.633Z,9.70
2023-02-21T10:01:53.335Z,9.70
2023-02-21T10:04:38.306Z,9.70
2023-02-21T10:07:14.157Z,9.70
2023-02-21T10:09:54.709Z,9.70
2023-02-21T10:12:50.539Z,9.70
2023-02-21T10:15:26.122Z,9.80
2023-02-21T10:18:05.762Z,9.80
2023-02-21T10:20:51.329Z,9.80
2023-02-21T10:23:36.553Z,9.90
2023-02-21T10:26:10.916Z,9.90
2023-02-21T10:28:39.490Z,10.00
2023-02-21T10:31:16.475Z,10.00
2023-02-21T10:33:43.851Z,10.00
2023-02-21T10:36:19.839Z,10.00
2023-02-21T10:38:56.888Z,10.10
2023-02-21T10:41:25.553Z,10.00
2023-02-21T10:43:59.974Z,10.00
2023-02-21T10:47:01.809Z,10.00
2023-02-21T10:49:40.930Z,10.00
2023-02-21T10:52:21.225Z,10.20
2023-02-21T10:55:01.855Z,10.10
2023-02-21T10:57:33.746Z,10.10
2023-02-21T11:00:10.029Z,10.00
2023-02-21T11:02:44.679Z,10.00
2023-02-21T11:05:17.769Z,10.00
2023-02-21T11:08:08.962Z,10.00
2023-02-21T11:10:42.261Z,10.00
2023-02-21T11:13:17.016Z,10.00
2023-02-21T11:15:45.518Z,10.00
2023-02-21T11:18:19.015Z,10.00
2023-02-21T11:20:47.364Z,10.10
2023-02-21T11:23:32.270Z,10.10
2023-02-21T11:26:07.914Z,10.10
2023-02-21T11:28:40.450Z,10.10
2023-02-21T11:31:18.517Z,10.10
2023-02-21T11:33:55.331Z,10.10
2023-02-21T11:36:37.464Z,10.10
2023-02-21T11:39:04.549Z,10.10
2023-02-21T11:41:37.885Z,10.00
2023-02-21T11:44:23.065Z,10.00
2023-02-21T11:46:55.313Z,10.00
2023-02-21T11:49:37.472Z,10.00
2023-02-21T11:52:12.983Z,10.00
2023-02-21T11:54:40.601Z,10.00
2023-02-21T11:57:14.383Z,10.00
2023-02-21T12:00:08.720Z,10.10
2023-02-21T12:02:57.298Z,10.10
2023-02-21T12:05:54.873Z,10.20
2023-02-21T12:08:51.695Z,10.20
2023-02-21T12:11:18.637Z,10.30
2023-02-21T12:14:24.503Z,10.20
2023-02-21T12:16:56.859Z,10.30
2023-02-21T12:19:58.122Z,10.30
2023-02-21T12:23:07.585Z,10.30
2023-02-21T12:26:07.059Z,10.40
2023-02-21T12:28:48.728Z,10.40
2023-02-21T12:31:44.872Z,10.40
2023-02-21T12:34:38.911Z,10.40
2023-02-21T12:37:33.439Z,10.40
2023-02-21T12:40:37.385Z,10.40
2023-02-21T12:43:14.488Z,10.30
2023-02-21T12:45:55.002Z,10.30
2023-02-21T12:48:57.176Z,10.40
2023-02-21T12:51:32.199Z,10.30
2023-02-21T12:54:24.926Z,10.30
2023-02-21T12:57:01.755Z,10.30
2023-02-21T12:59:46.112Z,10.30
2023-02-21T13:02:27.444Z,10.30
2023-02-21T13:05:07.602Z,10.30
2023-02-21T13:07:45.473Z,10.30
2023-02-21T13:10:27.904Z,10.20
2023-02-21T13:13:00.955Z,10.20
2023-02-21T13:15:30.453Z,10.20
2023-02-21T13:18:08.604Z,10.10
2023-02-21T13:20:42.583Z,10.20
2023-02-21T13:23:11.460Z,10.10
2023-02-21T13:26:23.810Z,10.20
2023-02-21T13:28:58.809Z,10.10
2023-02-21T13:31:39.411Z,10.10
2023-02-21T13:34:09.720Z,10.20
2023-02-21T13:36:39.830Z,10.20
2023-02-21T13:39:09.817Z,10.20
2023-02-21T13:41:44.968Z,10.20
2023-02-21T13:44:19.033Z,10.20
2023-02-21T13:46:45.965Z,10.20
2023-02-21T13:49:42.669Z,10.10
2023-02-21T13:52:24.396Z,10.10
2023-02-21T13:55:17.800Z,10.10
2023-02-21T13:57:58.066Z,10.10
2023-02-21T14:00:24.841Z,10.10
2023-02-21T14:02:57.661Z,10.10
2023-02-21T14:05:25.100Z,10.10
2023-02-21T14:08:07.739Z,10.20
2023-02-21T14:10:45.710Z,10.10
2023-02-21T14:13:56.101Z,10.10
2023-02-21T14:16:34.692Z,10.10
2023-02-21T14:19:11.266Z,10.10
2023-02-21T14:21:51.383Z,10.10
2023-02-21T14:24:27.863Z,10.00
2023-02-21T14:29:45.009Z,10.00
2023-02-21T14:32:11.912Z,10.00
2023-02-21T14:34:48.357Z,10.00
2023-02-21T14:37:35.462Z,9.90
2023-02-21T14:40:11.476Z,9.90
2023-02-21T14:43:19.754Z,9.90
2023-02-21T14:46:16.454Z,9.90
2023-02-21T14:48:52.542Z,9.90
2023-02-21T14:51:31.552Z,9.90
2023-02-21T14:54:26.352Z,9.80
2023-02-21T14:57:19.824Z,9.90
2023-02-21T14:59:51.658Z,9.90
2023-02-21T15:02:46.920Z,9.80
2023-02-21T15:05:31.616Z,9.80
2023-02-21T15:08:18.857Z,9.90
2023-02-21T15:10:48.176Z,9.80
2023-02-21T15:13:31.754Z,9.80
2023-02-21T15:16:00.406Z,9.80
2023-02-21T15:18:30.547Z,9.80
2023-02-21T15:21:05.192Z,9.80
2023-02-21T15:23:33.349Z,9.80
2023-02-21T15:26:16.135Z,9.80
2023-02-21T15:28:43.037Z,9.80
2023-02-21T15:31:11.622Z,9.80
2023-02-21T15:33:41.451Z,9.70
2023-02-21T15:36:19.366Z,9.70
2023-02-21T15:39:03.140Z,9.80
2023-02-21T15:41:34.958Z,9.70
2023-02-21T15:44:11.177Z,9.70
2023-02-21T15:46:46.268Z,9.70
2023-02-21T15:49:30.329Z,9.70
2023-02-21T15:51:57.557Z,9.70
2023-02-21T15:54:28.656Z,9.80
2023-02-21T15:57:11.656Z,9.70
2023-02-21T15:59:41.949Z,9.70
2023-02-21T16:02:14.679Z,9.70
2023-02-21T16:04:47.655Z,9.70
2023-02-21T16:07:22.345Z,9.70
2023-02-21T16:09:57.271Z,9.70
2023-02-21T16:12:37.907Z,9.70
2023-02-21T16:15:32.979Z,9.80
2023-02-21T16:18:03.543Z,9.70
2023-02-21T16:20:36.256Z,9.70
2023-02-21T16:23:35.652Z,9.70
2023-02-21T16:26:09.322Z,9.70
2023-02-21T16:28:37.996Z,9.70
2023-02-21T16:31:08.048Z,9.70
2023-02-21T16:33:35.731Z,9.60
2023-02-21T16:36:10.327Z,9.60
2023-02-21T16:38:37.469Z,9.70
2023-02-21T16:41:04.521Z,9.60
2023-02-21T16:43:31.429Z,9.60
2023-02-21T16:45:59.010Z,9.60
2023-02-21T16:48:33.199Z,9.50
2023-02-21T16:51:18.172Z,9.60
2023-02-21T16:53:46.397Z,9.60
2023-02-21T16:56:15.260Z,9.60
2023-02-21T16:58:46.293Z,9.50
2023-02-21T17:01:25.281Z,9.60
2023-02-21T17:03:53.904Z,9.60
2023-02-21T17:06:23.669Z,9.60
2023-02-21T17:08:51.240Z,9.50
2023-02-21T17:11:18.468Z,9.50
2023-02-21T17:13:45.475Z,9.50
2023-02-21T17:16:12.391Z,9.50
2023-02-21T17:18:39.344Z,9.50
2023-02-21T17:21:06.310Z,9.50
2023-02-21T17:23:33.178Z,9.50
2023-02-21T17:26:08.060Z,9.50
2023-02-21T17:28:37.548Z,9.40
2023-02-21T17:31:04.651Z,9.50
2023-02-21T17:33:31.990Z,9.50
2023-02-21T17:35:58.992Z,9.50
2023-02-21T17:38:25.841Z,9.50
2023-02-21T17:40:53.612Z,9.50
2023-02-21T17:43:21.070Z,9.50
2023-02-21T17:45:48.123Z,9.40
2023-02-21T17:48:15.077Z,9.40
2023-02-21T17:50:42.030Z,9.40
2023-02-21T17:53:08.853Z,9.40
2023-02-21T17:55:35.769Z,9.40
2023-02-21T17:58:02.705Z,9.40
2023-02-21T18:00:33.506Z,9.40
2023-02-21T18:03:04.005Z,9.40
2023-02-21T18:05:31.752Z,9.40
2023-02-21T18:07:59.358Z,9.40
2023-02-21T18:10:27.316Z,9.40
2023-02-21T18:12:55.396Z,9.40
2023-02-21T18:15:29.784Z,9.40
2023-02-21T18:17:58.515Z,9.40
2023-02-21T18:20:25.376Z,9.40
2023-02-21T18:22:52.268Z,9.40
2023-02-21T18:25:21.518Z,9.30
2023-02-21T18:27:49.218Z,9.30
2023-02-21T18:30:17.595Z,9.40
2023-02-21T18:32:45.973Z,9.30
2023-02-21T18:35:14.253Z,9.30
2023-02-21T18:37:41.855Z,9.30
2023-02-21T18:40:10.182Z,9.30
2023-02-21T18:42:37.314Z,9.30
2023-02-21T18:45:04.412Z,9.30
2023-02-21T18:47:41.786Z,9.30
2023-02-21T18:50:09.367Z,9.30
2023-02-21T18:52:36.278Z,9.30
2023-02-21T18:55:04.072Z,9.30
2023-02-21T18:57:31.609Z,9.30
2023-02-21T18:59:58.762Z,9.30
2023-02-21T19:02:25.744Z,9.20
2023-02-21T19:04:52.718Z,9.30
2023-02-21T19:07:19.671Z,9.30
2023-02-21T19:09:48.159Z,9.30
2023-02-21T19:12:15.158Z,9.20
2023-02-21T19:14:42.287Z,9.20
2023-02-21T19:17:09.448Z,9.20
2023-02-21T19:19:37.310Z,9.20
2023-02-21T19:22:05.173Z,9.20
2023-02-21T19:24:32.133Z,9.20
2023-02-21T19:26:59.425Z,9.20
2023-02-21T19:29:26.481Z,9.20
2023-02-21T19:31:54.166Z,9.20
2023-02-21T19:34:21.223Z,9.20
2023-02-21T19:36:51.095Z,9.20
2023-02-21T19:39:18.404Z,9.20
2023-02-21T19:41:45.932Z,9.20
2023-02-21T19:44:14.174Z,9.10
2023-02-21T19:46:41.062Z,9.10
2023-02-21T19:49:14.629Z,9.10
2023-02-21T19:51:41.666Z,9.20
2023-02-21T19:54:08.519Z,9.20
2023-02-21T19:56:35.509Z,9.20
2023-02-21T19:59:02.660Z,9.10
2023-02-21T20:01:31.117Z,9.20
2023-02-21T20:03:58.394Z,9.10
2023-02-21T20:06:27.902Z,9.10
2023-02-21T20:08:57.576Z,9.10
2023-02-21T20:11:24.737Z,9.10
2023-02-21T20:13:51.599Z,9.10
2023-02-21T20:16:20.437Z,9.10
2023-02-21T20:18:48.434Z,9.10
2023-02-21T20:21:30.641Z,9.10
2023-02-21T20:24:01.303Z,9.10
2023-02-21T20:26:29.457Z,9.10
2023-02-21T20:28:56.962Z,9.10
2023-02-21T20:31:28.375Z,9.10
2023-02-21T20:33:56.603Z,9.10
2023-02-21T20:36:33.373Z,9.10
2023-02-21T20:39:01.337Z,9.10
2023-02-21T20:41:34.505Z,9.10
2023-02-21T20:44:01.263Z,9.10
2023-02-21T20:46:29.209Z,9.10
2023-02-21T20:48:58.876Z,9.10
2023-02-21T20:51:30.754Z,9.30
2023-02-21T20:54:00.222Z,9.00
2023-02-21T20:56:39.613Z,9.10
2023-02-21T20:59:09.993Z,9.10
2023-02-21T21:01:36.891Z,9.00
2023-02-21T21:04:08.080Z,9.00
2023-02-21T21:06:36.646Z,9.10
2023-02-21T21:09:03.694Z,9.00
2023-02-21T21:11:31.863Z,9.00
2023-02-21T21:13:59.005Z,9.10
2023-02-21T21:16:25.958Z,9.00
2023-02-21T21:18:52.799Z,9.00
2023-02-21T21:21:20.799Z,9.00
2023-02-21T21:23:48.771Z,9.00
2023-02-21T21:26:16.723Z,9.00
2023-02-21T21:28:44.095Z,9.00
2023-02-21T21:31:11.006Z,9.00
2023-02-21T21:33:37.846Z,8.90
2023-02-21T21:36:09.028Z,9.00
2023-02-21T21:38:40.610Z,8.90
2023-02-21T21:41:13.675Z,9.00
2023-02-21T21:43:41.754Z,8.90
2023-02-21T21:46:08.953Z,9.00
2023-02-21T21:48:35.738Z,8.90
2023-02-21T21:51:03.622Z,9.00
2023-02-21T21:53:30.678Z,8.90
2023-02-21T21:56:04.509Z,8.90
2023-02-21T21:58:33.771Z,8.90
2023-02-21T22:01:01.961Z,8.90
2023-02-21T22:03:29.114Z,8.90
2023-02-21T22:06:00.573Z,8.90
2023-02-21T22:08:28.697Z,8.90
2023-02-21T22:10:55.569Z,8.90
2023-02-21T22:13:22.483Z,8.80
2023-02-21T22:15:50.000Z,8.90
2023-02-21T22:18:19.009Z,8.80
2023-02-21T22:20:49.728Z,8.80
2023-02-21T22:23:21.237Z,8.80
2023-02-21T22:25:48.856Z,8.80
2023-02-21T22:28:16.348Z,8.80
2023-02-21T22:30:43.173Z,8.80
2023-02-21T22:33:13.660Z,8.90
2023-02-21T22:35:41.445Z,8.80
2023-02-21T22:38:14.377Z,8.80
2023-02-21T22:40:42.365Z,8.80
2023-02-21T22:43:10.250Z,8.80
2023-02-21T22:45:37.857Z,8.90
2023-02-21T22:48:07.188Z,8.70
2023-02-21T22:50:37.111Z,8.80
2023-02-21T22:53:09.294Z,8.80
2023-02-21T22:55:37.442Z,8.80
2023-02-21T22:58:06.815Z,8.80
2023-02-21T23:00:35.349Z,8.80
2023-02-21T23:03:13.336Z,8.80
2023-02-21T23:05:49.548Z,8.70
2023-02-21T23:08:19.262Z,8.70
2023-02-21T23:10:47.338Z,8.70
2023-02-21T23:13:17.495Z,8.70
2023-02-21T23:15:45.706Z,8.70
2023-02-21T23:18:20.458Z,8.70
2023-02-21T23:20:55.742Z,8.80
2023-02-21T23:23:28.796Z,8.70
2023-02-21T23:26:00.403Z,8.70
2023-02-21T23:28:28.928Z,8.70
2023-02-21T23:30:57.920Z,8.70
2023-02-21T23:33:27.700Z,8.70
2023-02-21T23:35:56.094Z,8.70
2023-02-21T23:38:24.180Z,8.70
2023-02-21T23:40:56.515Z,8.80
2023-02-21T23:43:35.730Z,8.70
2023-02-21T23:46:06.537Z,8.70
2023-02-21T23:48:33.663Z,8.70
2023-02-21T23:51:00.601Z,8.70
2023-02-21T23:53:29.438Z,8.70
2023-02-21T23:55:59.618Z,8.70
2023-02-21T23:58:29.351Z,8.60
